sensor_id;sensor_type;location;lat;lon;timestamp;P1;durP1;ratioP1;P2;durP2;ratioP2
5805;SDS011;2929;50.810;8.342;2023-01-30T00:01:18;51.37;;;18.13;;
5805;SDS011;2929;50.810;8.342;2023-01-30T00:03:48;45.50;;;18.77;;
5805;SDS011;2929;50.810;8.342;2023-01-30T00:06:15;50.50;;;18.83;;
5805;SDS011;2929;50.810;8.342;2023-01-30T00:08:42;41.10;;;16.40;;
5805;SDS011;2929;50.810;8.342;2023-01-30T00:11:10;38.83;;;16.67;;
5805;SDS011;2929;50.810;8.342;2023-01-30T00:13:39;42.07;;;16.47;;
5805;SDS011;2929;50.810;8.342;2023-01-30T00:16:07;48.63;;;18.47;;
5805;SDS011;2929;50.810;8.342;2023-01-30T00:18:35;49.90;;;18.50;;
5805;SDS011;2929;50.810;8.342;2023-01-30T00:21:04;46.37;;;15.97;;
5805;SDS011;2929;50.810;8.342;2023-01-30T00:23:33;48.60;;;17.10;;
5805;SDS011;2929;50.810;8.342;2023-01-30T00:26:01;46.57;;;18.10;;
5805;SDS011;2929;50.810;8.342;2023-01-30T00:28:29;47.30;;;14.70;;
5805;SDS011;2929;50.810;8.342;2023-01-30T00:30:56;42.50;;;16.30;;
5805;SDS011;2929;50.810;8.342;2023-01-30T00:33:25;45.53;;;17.73;;
5805;SDS011;2929;50.810;8.342;2023-01-30T00:35:53;41.80;;;16.20;;
5805;SDS011;2929;50.810;8.342;2023-01-30T00:38:23;47.83;;;18.77;;
5805;SDS011;2929;50.810;8.342;2023-01-30T00:40:51;51.93;;;16.97;;
5805;SDS011;2929;50.810;8.342;2023-01-30T00:43:18;48.80;;;18.17;;
5805;SDS011;2929;50.810;8.342;2023-01-30T00:46:04;45.30;;;17.13;;
5805;SDS011;2929;50.810;8.342;2023-01-30T00:48:53;42.83;;;16.67;;
5805;SDS011;2929;50.810;8.342;2023-01-30T00:51:20;42.87;;;16.43;;
5805;SDS011;2929;50.810;8.342;2023-01-30T00:53:48;41.20;;;16.47;;
5805;SDS011;2929;50.810;8.342;2023-01-30T00:56:15;41.77;;;15.90;;
5805;SDS011;2929;50.810;8.342;2023-01-30T00:58:42;50.13;;;16.80;;
5805;SDS011;2929;50.810;8.342;2023-01-30T01:01:09;46.47;;;16.03;;
5805;SDS011;2929;50.810;8.342;2023-01-30T01:03:36;46.30;;;15.80;;
5805;SDS011;2929;50.810;8.342;2023-01-30T01:06:04;47.33;;;16.30;;
5805;SDS011;2929;50.810;8.342;2023-01-30T01:08:31;41.43;;;17.07;;
5805;SDS011;2929;50.810;8.342;2023-01-30T01:11:00;47.80;;;17.00;;
5805;SDS011;2929;50.810;8.342;2023-01-30T01:13:28;38.50;;;15.23;;
5805;SDS011;2929;50.810;8.342;2023-01-30T01:15:55;36.57;;;17.70;;
5805;SDS011;2929;50.810;8.342;2023-01-30T01:18:22;37.57;;;15.53;;
5805;SDS011;2929;50.810;8.342;2023-01-30T01:20:49;36.60;;;15.80;;
5805;SDS011;2929;50.810;8.342;2023-01-30T01:23:16;43.73;;;15.90;;
5805;SDS011;2929;50.810;8.342;2023-01-30T01:25:44;37.07;;;16.53;;
5805;SDS011;2929;50.810;8.342;2023-01-30T01:28:12;34.70;;;14.93;;
5805;SDS011;2929;50.810;8.342;2023-01-30T01:30:42;44.57;;;15.63;;
5805;SDS011;2929;50.810;8.342;2023-01-30T01:33:09;33.83;;;14.17;;
5805;SDS011;2929;50.810;8.342;2023-01-30T01:35:39;30.73;;;14.37;;
5805;SDS011;2929;50.810;8.342;2023-01-30T01:38:06;34.40;;;14.40;;
5805;SDS011;2929;50.810;8.342;2023-01-30T01:40:33;41.63;;;15.27;;
5805;SDS011;2929;50.810;8.342;2023-01-30T01:43:19;34.30;;;14.20;;
5805;SDS011;2929;50.810;8.342;2023-01-30T01:45:50;32.50;;;13.00;;
5805;SDS011;2929;50.810;8.342;2023-01-30T01:48:23;36.27;;;13.63;;
5805;SDS011;2929;50.810;8.342;2023-01-30T01:50:53;37.13;;;15.80;;
5805;SDS011;2929;50.810;8.342;2023-01-30T01:53:28;27.10;;;12.97;;
5805;SDS011;2929;50.810;8.342;2023-01-30T01:55:59;28.37;;;12.47;;
5805;SDS011;2929;50.810;8.342;2023-01-30T01:58:30;30.30;;;13.33;;
5805;SDS011;2929;50.810;8.342;2023-01-30T02:01:02;29.67;;;13.30;;
5805;SDS011;2929;50.810;8.342;2023-01-30T02:03:31;28.77;;;12.70;;
5805;SDS011;2929;50.810;8.342;2023-01-30T02:06:04;25.97;;;12.60;;
5805;SDS011;2929;50.810;8.342;2023-01-30T02:08:33;28.27;;;12.30;;
5805;SDS011;2929;50.810;8.342;2023-01-30T02:11:04;27.67;;;12.20;;
5805;SDS011;2929;50.810;8.342;2023-01-30T02:13:37;28.33;;;13.07;;
5805;SDS011;2929;50.810;8.342;2023-01-30T02:16:05;28.67;;;12.77;;
5805;SDS011;2929;50.810;8.342;2023-01-30T02:18:34;22.50;;;11.43;;
5805;SDS011;2929;50.810;8.342;2023-01-30T02:21:11;24.60;;;13.10;;
5805;SDS011;2929;50.810;8.342;2023-01-30T02:27:03;26.00;;;13.03;;
5805;SDS011;2929;50.810;8.342;2023-01-30T02:29:47;26.13;;;12.30;;
5805;SDS011;2929;50.810;8.342;2023-01-30T02:32:44;25.63;;;11.80;;
5805;SDS011;2929;50.810;8.342;2023-01-30T02:35:17;26.80;;;12.77;;
5805;SDS011;2929;50.810;8.342;2023-01-30T02:37:56;24.50;;;12.13;;
5805;SDS011;2929;50.810;8.342;2023-01-30T02:40:37;27.20;;;12.80;;
5805;SDS011;2929;50.810;8.342;2023-01-30T02:43:13;28.63;;;12.60;;
5805;SDS011;2929;50.810;8.342;2023-01-30T02:45:46;26.90;;;12.83;;
5805;SDS011;2929;50.810;8.342;2023-01-30T02:48:22;29.67;;;13.80;;
5805;SDS011;2929;50.810;8.342;2023-01-30T02:50:54;27.67;;;12.57;;
5805;SDS011;2929;50.810;8.342;2023-01-30T02:53:25;28.27;;;12.83;;
5805;SDS011;2929;50.810;8.342;2023-01-30T02:55:55;25.43;;;11.63;;
5805;SDS011;2929;50.810;8.342;2023-01-30T02:58:22;26.53;;;12.30;;
5805;SDS011;2929;50.810;8.342;2023-01-30T03:00:56;33.50;;;13.97;;
5805;SDS011;2929;50.810;8.342;2023-01-30T03:03:54;29.73;;;13.77;;
5805;SDS011;2929;50.810;8.342;2023-01-30T03:06:58;25.27;;;12.53;;
5805;SDS011;2929;50.810;8.342;2023-01-30T03:09:40;33.87;;;13.50;;
5805;SDS011;2929;50.810;8.342;2023-01-30T03:12:16;34.90;;;13.07;;
5805;SDS011;2929;50.810;8.342;2023-01-30T03:14:49;31.50;;;13.10;;
5805;SDS011;2929;50.810;8.342;2023-01-30T03:17:20;38.90;;;13.40;;
5805;SDS011;2929;50.810;8.342;2023-01-30T03:19:53;37.30;;;14.80;;
5805;SDS011;2929;50.810;8.342;2023-01-30T03:22:20;31.70;;;13.70;;
5805;SDS011;2929;50.810;8.342;2023-01-30T03:24:48;29.50;;;13.37;;
5805;SDS011;2929;50.810;8.342;2023-01-30T03:27:17;41.13;;;14.40;;
5805;SDS011;2929;50.810;8.342;2023-01-30T03:29:46;25.93;;;11.30;;
5805;SDS011;2929;50.810;8.342;2023-01-30T03:32:14;38.97;;;15.27;;
5805;SDS011;2929;50.810;8.342;2023-01-30T03:34:41;32.40;;;13.67;;
5805;SDS011;2929;50.810;8.342;2023-01-30T03:37:10;33.37;;;14.43;;
5805;SDS011;2929;50.810;8.342;2023-01-30T03:39:37;31.50;;;14.17;;
5805;SDS011;2929;50.810;8.342;2023-01-30T03:42:05;31.63;;;13.40;;
5805;SDS011;2929;50.810;8.342;2023-01-30T03:44:32;29.80;;;12.13;;
5805;SDS011;2929;50.810;8.342;2023-01-30T03:46:59;31.43;;;13.50;;
5805;SDS011;2929;50.810;8.342;2023-01-30T03:49:26;28.77;;;13.10;;
5805;SDS011;2929;50.810;8.342;2023-01-30T03:51:55;30.60;;;12.83;;
5805;SDS011;2929;50.810;8.342;2023-01-30T03:54:23;24.60;;;9.93;;
5805;SDS011;2929;50.810;8.342;2023-01-30T03:56:52;19.80;;;9.63;;
5805;SDS011;2929;50.810;8.342;2023-01-30T03:59:19;20.90;;;9.40;;
5805;SDS011;2929;50.810;8.342;2023-01-30T04:01:52;18.53;;;9.70;;
5805;SDS011;2929;50.810;8.342;2023-01-30T04:04:19;19.47;;;8.13;;
5805;SDS011;2929;50.810;8.342;2023-01-30T04:06:47;27.60;;;9.03;;
5805;SDS011;2929;50.810;8.342;2023-01-30T04:09:14;15.63;;;8.27;;
5805;SDS011;2929;50.810;8.342;2023-01-30T04:11:46;14.30;;;7.80;;
5805;SDS011;2929;50.810;8.342;2023-01-30T04:14:15;20.30;;;8.30;;
5805;SDS011;2929;50.810;8.342;2023-01-30T04:17:02;18.50;;;8.40;;
5805;SDS011;2929;50.810;8.342;2023-01-30T04:19:45;17.10;;;8.00;;
5805;SDS011;2929;50.810;8.342;2023-01-30T04:22:12;20.97;;;6.97;;
5805;SDS011;2929;50.810;8.342;2023-01-30T04:24:39;22.37;;;7.93;;
5805;SDS011;2929;50.810;8.342;2023-01-30T04:27:08;17.83;;;6.97;;
5805;SDS011;2929;50.810;8.342;2023-01-30T04:29:40;11.50;;;6.73;;
5805;SDS011;2929;50.810;8.342;2023-01-30T04:32:09;14.63;;;7.10;;
5805;SDS011;2929;50.810;8.342;2023-01-30T04:34:37;10.30;;;6.13;;
5805;SDS011;2929;50.810;8.342;2023-01-30T04:37:04;13.53;;;6.77;;
5805;SDS011;2929;50.810;8.342;2023-01-30T04:39:31;10.70;;;6.20;;
5805;SDS011;2929;50.810;8.342;2023-01-30T04:41:58;10.97;;;6.00;;
5805;SDS011;2929;50.810;8.342;2023-01-30T04:44:27;13.47;;;6.80;;
5805;SDS011;2929;50.810;8.342;2023-01-30T04:47:11;13.30;;;6.83;;
5805;SDS011;2929;50.810;8.342;2023-01-30T04:49:39;13.37;;;6.30;;
5805;SDS011;2929;50.810;8.342;2023-01-30T04:52:06;9.90;;;5.80;;
5805;SDS011;2929;50.810;8.342;2023-01-30T04:54:34;16.73;;;7.30;;
5805;SDS011;2929;50.810;8.342;2023-01-30T04:57:01;15.70;;;7.37;;
5805;SDS011;2929;50.810;8.342;2023-01-30T04:59:30;9.40;;;5.40;;
5805;SDS011;2929;50.810;8.342;2023-01-30T05:02:00;16.50;;;7.50;;
5805;SDS011;2929;50.810;8.342;2023-01-30T05:04:27;16.07;;;8.17;;
5805;SDS011;2929;50.810;8.342;2023-01-30T05:06:54;11.40;;;6.57;;
5805;SDS011;2929;50.810;8.342;2023-01-30T05:09:21;15.73;;;7.90;;
5805;SDS011;2929;50.810;8.342;2023-01-30T05:11:48;14.93;;;7.87;;
5805;SDS011;2929;50.810;8.342;2023-01-30T05:14:15;15.90;;;8.23;;
5805;SDS011;2929;50.810;8.342;2023-01-30T05:16:44;18.43;;;8.40;;
5805;SDS011;2929;50.810;8.342;2023-01-30T05:19:11;18.30;;;8.70;;
5805;SDS011;2929;50.810;8.342;2023-01-30T05:21:38;17.10;;;7.53;;
5805;SDS011;2929;50.810;8.342;2023-01-30T05:24:05;16.13;;;8.47;;
5805;SDS011;2929;50.810;8.342;2023-01-30T05:26:34;15.43;;;7.47;;
5805;SDS011;2929;50.810;8.342;2023-01-30T05:29:01;15.77;;;8.47;;
5805;SDS011;2929;50.810;8.342;2023-01-30T05:31:28;18.97;;;9.33;;
5805;SDS011;2929;50.810;8.342;2023-01-30T05:33:56;18.47;;;8.70;;
5805;SDS011;2929;50.810;8.342;2023-01-30T05:36:23;12.67;;;7.63;;
5805;SDS011;2929;50.810;8.342;2023-01-30T05:38:50;17.43;;;7.93;;
5805;SDS011;2929;50.810;8.342;2023-01-30T05:41:17;17.97;;;8.67;;
5805;SDS011;2929;50.810;8.342;2023-01-30T05:43:47;23.10;;;8.57;;
5805;SDS011;2929;50.810;8.342;2023-01-30T05:46:15;18.00;;;9.20;;
5805;SDS011;2929;50.810;8.342;2023-01-30T05:48:42;24.70;;;9.23;;
5805;SDS011;2929;50.810;8.342;2023-01-30T05:51:20;18.93;;;8.63;;
5805;SDS011;2929;50.810;8.342;2023-01-30T05:53:48;25.43;;;8.80;;
5805;SDS011;2929;50.810;8.342;2023-01-30T05:56:15;21.43;;;8.40;;
5805;SDS011;2929;50.810;8.342;2023-01-30T05:58:43;13.33;;;7.17;;
5805;SDS011;2929;50.810;8.342;2023-01-30T06:01:15;17.90;;;7.23;;
5805;SDS011;2929;50.810;8.342;2023-01-30T06:03:42;12.20;;;6.10;;
5805;SDS011;2929;50.810;8.342;2023-01-30T06:06:09;11.57;;;6.77;;
5805;SDS011;2929;50.810;8.342;2023-01-30T06:08:39;14.70;;;6.20;;
5805;SDS011;2929;50.810;8.342;2023-01-30T06:11:07;16.60;;;7.50;;
5805;SDS011;2929;50.810;8.342;2023-01-30T06:13:36;13.67;;;7.30;;
5805;SDS011;2929;50.810;8.342;2023-01-30T06:16:04;14.57;;;7.50;;
5805;SDS011;2929;50.810;8.342;2023-01-30T06:18:31;11.27;;;6.97;;
5805;SDS011;2929;50.810;8.342;2023-01-30T06:20:58;16.53;;;7.03;;
5805;SDS011;2929;50.810;8.342;2023-01-30T06:23:26;15.60;;;6.90;;
5805;SDS011;2929;50.810;8.342;2023-01-30T06:25:55;14.93;;;6.67;;
5805;SDS011;2929;50.810;8.342;2023-01-30T06:28:23;14.00;;;7.30;;
5805;SDS011;2929;50.810;8.342;2023-01-30T06:30:51;13.27;;;6.40;;
5805;SDS011;2929;50.810;8.342;2023-01-30T06:33:18;13.80;;;6.07;;
5805;SDS011;2929;50.810;8.342;2023-01-30T06:35:47;14.83;;;7.43;;
5805;SDS011;2929;50.810;8.342;2023-01-30T06:38:15;15.07;;;7.07;;
5805;SDS011;2929;50.810;8.342;2023-01-30T06:40:43;14.80;;;7.57;;
5805;SDS011;2929;50.810;8.342;2023-01-30T06:43:12;12.20;;;5.57;;
5805;SDS011;2929;50.810;8.342;2023-01-30T06:45:40;9.10;;;5.40;;
5805;SDS011;2929;50.810;8.342;2023-01-30T06:48:07;11.97;;;7.00;;
5805;SDS011;2929;50.810;8.342;2023-01-30T06:50:35;12.87;;;5.67;;
5805;SDS011;2929;50.810;8.342;2023-01-30T06:53:02;18.07;;;7.97;;
5805;SDS011;2929;50.810;8.342;2023-01-30T06:55:32;14.77;;;7.40;;
5805;SDS011;2929;50.810;8.342;2023-01-30T06:58:01;14.53;;;7.20;;
5805;SDS011;2929;50.810;8.342;2023-01-30T07:00:30;8.43;;;4.90;;
5805;SDS011;2929;50.810;8.342;2023-01-30T07:02:57;11.53;;;6.63;;
5805;SDS011;2929;50.810;8.342;2023-01-30T07:05:25;9.73;;;5.57;;
5805;SDS011;2929;50.810;8.342;2023-01-30T07:07:54;14.30;;;6.73;;
5805;SDS011;2929;50.810;8.342;2023-01-30T07:10:21;13.03;;;5.50;;
5805;SDS011;2929;50.810;8.342;2023-01-30T07:12:50;11.07;;;5.70;;
5805;SDS011;2929;50.810;8.342;2023-01-30T07:15:17;11.27;;;5.97;;
5805;SDS011;2929;50.810;8.342;2023-01-30T07:17:47;11.17;;;5.17;;
5805;SDS011;2929;50.810;8.342;2023-01-30T07:20:14;11.83;;;6.37;;
5805;SDS011;2929;50.810;8.342;2023-01-30T07:22:41;8.90;;;5.20;;
5805;SDS011;2929;50.810;8.342;2023-01-30T07:25:14;12.23;;;5.60;;
5805;SDS011;2929;50.810;8.342;2023-01-30T07:27:41;10.97;;;5.60;;
5805;SDS011;2929;50.810;8.342;2023-01-30T07:30:09;10.10;;;5.73;;
5805;SDS011;2929;50.810;8.342;2023-01-30T07:32:37;8.73;;;5.20;;
5805;SDS011;2929;50.810;8.342;2023-01-30T07:35:06;8.00;;;4.67;;
5805;SDS011;2929;50.810;8.342;2023-01-30T07:37:33;8.63;;;4.43;;
5805;SDS011;2929;50.810;8.342;2023-01-30T07:40:00;8.40;;;5.07;;
5805;SDS011;2929;50.810;8.342;2023-01-30T07:42:27;14.07;;;4.50;;
5805;SDS011;2929;50.810;8.342;2023-01-30T07:44:55;9.77;;;5.40;;
5805;SDS011;2929;50.810;8.342;2023-01-30T07:47:23;11.63;;;4.33;;
5805;SDS011;2929;50.810;8.342;2023-01-30T07:49:50;6.50;;;4.10;;
5805;SDS011;2929;50.810;8.342;2023-01-30T07:52:18;7.67;;;4.63;;
5805;SDS011;2929;50.810;8.342;2023-01-30T07:54:47;5.40;;;4.00;;
5805;SDS011;2929;50.810;8.342;2023-01-30T07:57:14;9.23;;;5.17;;
5805;SDS011;2929;50.810;8.342;2023-01-30T07:59:41;6.57;;;4.50;;
5805;SDS011;2929;50.810;8.342;2023-01-30T08:02:08;8.20;;;4.77;;
5805;SDS011;2929;50.810;8.342;2023-01-30T08:04:36;12.57;;;4.37;;
5805;SDS011;2929;50.810;8.342;2023-01-30T08:07:03;6.23;;;4.10;;
5805;SDS011;2929;50.810;8.342;2023-01-30T08:09:31;9.70;;;4.30;;
5805;SDS011;2929;50.810;8.342;2023-01-30T08:11:58;8.20;;;4.00;;
5805;SDS011;2929;50.810;8.342;2023-01-30T08:14:26;13.53;;;4.47;;
5805;SDS011;2929;50.810;8.342;2023-01-30T08:16:54;6.37;;;4.17;;
5805;SDS011;2929;50.810;8.342;2023-01-30T08:19:30;5.70;;;3.00;;
5805;SDS011;2929;50.810;8.342;2023-01-30T08:21:57;4.10;;;2.80;;
5805;SDS011;2929;50.810;8.342;2023-01-30T08:24:24;3.93;;;2.70;;
5805;SDS011;2929;50.810;8.342;2023-01-30T08:26:53;2.50;;;2.17;;
5805;SDS011;2929;50.810;8.342;2023-01-30T08:29:20;5.47;;;2.70;;
5805;SDS011;2929;50.810;8.342;2023-01-30T08:31:47;4.20;;;2.80;;
5805;SDS011;2929;50.810;8.342;2023-01-30T08:34:14;2.70;;;2.10;;
5805;SDS011;2929;50.810;8.342;2023-01-30T08:36:42;2.83;;;1.90;;
5805;SDS011;2929;50.810;8.342;2023-01-30T08:39:10;2.23;;;1.73;;
5805;SDS011;2929;50.810;8.342;2023-01-30T08:41:38;4.17;;;1.90;;
5805;SDS011;2929;50.810;8.342;2023-01-30T08:44:08;2.53;;;1.90;;
5805;SDS011;2929;50.810;8.342;2023-01-30T08:46:36;1.90;;;1.77;;
5805;SDS011;2929;50.810;8.342;2023-01-30T08:49:04;4.00;;;1.73;;
5805;SDS011;2929;50.810;8.342;2023-01-30T08:51:31;2.17;;;1.83;;
5805;SDS011;2929;50.810;8.342;2023-01-30T08:53:58;3.50;;;1.93;;
5805;SDS011;2929;50.810;8.342;2023-01-30T08:56:26;1.67;;;1.50;;
5805;SDS011;2929;50.810;8.342;2023-01-30T08:58:53;2.47;;;1.60;;
5805;SDS011;2929;50.810;8.342;2023-01-30T09:01:22;3.00;;;1.93;;
5805;SDS011;2929;50.810;8.342;2023-01-30T09:03:49;1.70;;;1.60;;
5805;SDS011;2929;50.810;8.342;2023-01-30T09:06:16;2.80;;;1.60;;
5805;SDS011;2929;50.810;8.342;2023-01-30T09:08:43;2.50;;;2.03;;
5805;SDS011;2929;50.810;8.342;2023-01-30T09:11:10;3.87;;;1.80;;
5805;SDS011;2929;50.810;8.342;2023-01-30T09:13:37;2.87;;;2.57;;
5805;SDS011;2929;50.810;8.342;2023-01-30T09:16:07;2.77;;;2.57;;
5805;SDS011;2929;50.810;8.342;2023-01-30T09:18:38;4.37;;;2.70;;
5805;SDS011;2929;50.810;8.342;2023-01-30T09:21:06;4.07;;;3.23;;
5805;SDS011;2929;50.810;8.342;2023-01-30T09:23:34;4.63;;;3.70;;
5805;SDS011;2929;50.810;8.342;2023-01-30T09:26:01;4.27;;;3.67;;
5805;SDS011;2929;50.810;8.342;2023-01-30T09:28:29;6.57;;;3.63;;
5805;SDS011;2929;50.810;8.342;2023-01-30T09:30:57;10.93;;;4.77;;
5805;SDS011;2929;50.810;8.342;2023-01-30T09:33:25;6.57;;;4.77;;
5805;SDS011;2929;50.810;8.342;2023-01-30T09:35:54;5.60;;;4.77;;
5805;SDS011;2929;50.810;8.342;2023-01-30T09:38:21;15.00;;;5.10;;
5805;SDS011;2929;50.810;8.342;2023-01-30T09:40:52;10.67;;;4.77;;
5805;SDS011;2929;50.810;8.342;2023-01-30T09:43:37;8.67;;;4.00;;
5805;SDS011;2929;50.810;8.342;2023-01-30T09:46:17;6.63;;;2.93;;
5805;SDS011;2929;50.810;8.342;2023-01-30T09:48:55;8.40;;;4.47;;
5805;SDS011;2929;50.810;8.342;2023-01-30T09:51:38;6.27;;;5.00;;
5805;SDS011;2929;50.810;8.342;2023-01-30T09:54:18;8.57;;;4.60;;
5805;SDS011;2929;50.810;8.342;2023-01-30T09:57:00;6.00;;;4.13;;
5805;SDS011;2929;50.810;8.342;2023-01-30T09:59:39;12.50;;;5.27;;
5805;SDS011;2929;50.810;8.342;2023-01-30T10:02:26;16.83;;;5.37;;
5805;SDS011;2929;50.810;8.342;2023-01-30T10:05:05;12.63;;;4.40;;
5805;SDS011;2929;50.810;8.342;2023-01-30T10:07:42;12.60;;;4.60;;
5805;SDS011;2929;50.810;8.342;2023-01-30T10:10:36;12.37;;;6.20;;
5805;SDS011;2929;50.810;8.342;2023-01-30T10:16:08;7.23;;;4.60;;
5805;SDS011;2929;50.810;8.342;2023-01-30T10:18:48;9.73;;;4.70;;
5805;SDS011;2929;50.810;8.342;2023-01-30T10:21:24;6.87;;;3.77;;
5805;SDS011;2929;50.810;8.342;2023-01-30T10:24:11;10.80;;;4.60;;
5805;SDS011;2929;50.810;8.342;2023-01-30T10:26:47;10.27;;;4.13;;
5805;SDS011;2929;50.810;8.342;2023-01-30T10:29:14;12.60;;;4.00;;
5805;SDS011;2929;50.810;8.342;2023-01-30T10:31:47;11.37;;;5.10;;
5805;SDS011;2929;50.810;8.342;2023-01-30T10:34:19;12.23;;;3.90;;
5805;SDS011;2929;50.810;8.342;2023-01-30T10:36:51;12.07;;;4.97;;
5805;SDS011;2929;50.810;8.342;2023-01-30T10:39:26;13.70;;;4.63;;
5805;SDS011;2929;50.810;8.342;2023-01-30T10:42:01;9.50;;;4.70;;
5805;SDS011;2929;50.810;8.342;2023-01-30T10:44:34;14.83;;;5.43;;
5805;SDS011;2929;50.810;8.342;2023-01-30T10:47:09;7.37;;;3.93;;
5805;SDS011;2929;50.810;8.342;2023-01-30T10:50:01;5.83;;;3.83;;
5805;SDS011;2929;50.810;8.342;2023-01-30T10:52:40;29.17;;;4.90;;
5805;SDS011;2929;50.810;8.342;2023-01-30T10:55:14;6.83;;;3.20;;
5805;SDS011;2929;50.810;8.342;2023-01-30T10:57:50;9.90;;;4.30;;
5805;SDS011;2929;50.810;8.342;2023-01-30T11:00:22;9.27;;;3.30;;
5805;SDS011;2929;50.810;8.342;2023-01-30T11:03:07;8.37;;;4.30;;
5805;SDS011;2929;50.810;8.342;2023-01-30T11:05:46;13.13;;;4.20;;
5805;SDS011;2929;50.810;8.342;2023-01-30T11:08:19;9.00;;;4.63;;
5805;SDS011;2929;50.810;8.342;2023-01-30T11:10:50;12.00;;;4.90;;
5805;SDS011;2929;50.810;8.342;2023-01-30T11:13:20;11.80;;;4.57;;
5805;SDS011;2929;50.810;8.342;2023-01-30T11:15:50;11.30;;;4.83;;
5805;SDS011;2929;50.810;8.342;2023-01-30T11:18:19;11.93;;;5.47;;
5805;SDS011;2929;50.810;8.342;2023-01-30T11:20:56;17.77;;;4.07;;
5805;SDS011;2929;50.810;8.342;2023-01-30T11:23:30;22.33;;;4.30;;
5805;SDS011;2929;50.810;8.342;2023-01-30T11:26:01;17.50;;;4.43;;
5805;SDS011;2929;50.810;8.342;2023-01-30T11:28:33;14.33;;;4.27;;
5805;SDS011;2929;50.810;8.342;2023-01-30T11:31:03;8.20;;;3.17;;
5805;SDS011;2929;50.810;8.342;2023-01-30T11:33:33;13.50;;;4.47;;
5805;SDS011;2929;50.810;8.342;2023-01-30T11:36:03;12.73;;;4.07;;
5805;SDS011;2929;50.810;8.342;2023-01-30T11:38:32;20.40;;;3.20;;
5805;SDS011;2929;50.810;8.342;2023-01-30T11:41:05;10.97;;;2.93;;
5805;SDS011;2929;50.810;8.342;2023-01-30T11:43:43;16.03;;;4.20;;
5805;SDS011;2929;50.810;8.342;2023-01-30T11:46:11;12.93;;;2.67;;
5805;SDS011;2929;50.810;8.342;2023-01-30T11:48:42;10.00;;;3.30;;
5805;SDS011;2929;50.810;8.342;2023-01-30T11:51:18;11.30;;;2.77;;
5805;SDS011;2929;50.810;8.342;2023-01-30T11:53:48;18.23;;;3.83;;
5805;SDS011;2929;50.810;8.342;2023-01-30T11:56:22;9.40;;;2.90;;
5805;SDS011;2929;50.810;8.342;2023-01-30T11:58:53;15.27;;;3.03;;
5805;SDS011;2929;50.810;8.342;2023-01-30T12:01:24;13.17;;;3.10;;
5805;SDS011;2929;50.810;8.342;2023-01-30T12:03:53;10.90;;;3.00;;
5805;SDS011;2929;50.810;8.342;2023-01-30T12:06:21;13.47;;;2.90;;
5805;SDS011;2929;50.810;8.342;2023-01-30T12:08:51;16.77;;;3.90;;
5805;SDS011;2929;50.810;8.342;2023-01-30T12:11:26;22.50;;;3.40;;
5805;SDS011;2929;50.810;8.342;2023-01-30T12:13:57;17.57;;;3.17;;
5805;SDS011;2929;50.810;8.342;2023-01-30T12:16:39;11.80;;;3.23;;
5805;SDS011;2929;50.810;8.342;2023-01-30T12:19:20;11.57;;;2.90;;
5805;SDS011;2929;50.810;8.342;2023-01-30T12:22:08;12.97;;;3.93;;
5805;SDS011;2929;50.810;8.342;2023-01-30T12:24:44;10.83;;;2.10;;
5805;SDS011;2929;50.810;8.342;2023-01-30T12:27:20;22.43;;;3.90;;
5805;SDS011;2929;50.810;8.342;2023-01-30T12:29:53;8.10;;;2.70;;
5805;SDS011;2929;50.810;8.342;2023-01-30T12:32:26;8.07;;;3.60;;
5805;SDS011;2929;50.810;8.342;2023-01-30T12:34:55;12.23;;;2.83;;
5805;SDS011;2929;50.810;8.342;2023-01-30T12:37:35;26.23;;;3.57;;
5805;SDS011;2929;50.810;8.342;2023-01-30T12:40:14;14.10;;;2.70;;
5805;SDS011;2929;50.810;8.342;2023-01-30T12:42:55;23.33;;;6.13;;
5805;SDS011;2929;50.810;8.342;2023-01-30T12:45:34;21.43;;;3.10;;
5805;SDS011;2929;50.810;8.342;2023-01-30T12:51:02;16.50;;;3.20;;
5805;SDS011;2929;50.810;8.342;2023-01-30T12:53:39;10.97;;;2.90;;
5805;SDS011;2929;50.810;8.342;2023-01-30T12:56:19;11.87;;;5.47;;
5805;SDS011;2929;50.810;8.342;2023-01-30T12:59:13;9.10;;;3.40;;
5805;SDS011;2929;50.810;8.342;2023-01-30T13:01:48;9.80;;;2.80;;
5805;SDS011;2929;50.810;8.342;2023-01-30T13:04:30;19.83;;;2.87;;
5805;SDS011;2929;50.810;8.342;2023-01-30T13:07:08;21.03;;;3.90;;
5805;SDS011;2929;50.810;8.342;2023-01-30T13:09:50;13.23;;;2.43;;
5805;SDS011;2929;50.810;8.342;2023-01-30T13:12:30;15.00;;;3.40;;
5805;SDS011;2929;50.810;8.342;2023-01-30T13:15:07;15.43;;;3.43;;
5805;SDS011;2929;50.810;8.342;2023-01-30T13:17:50;10.17;;;3.57;;
5805;SDS011;2929;50.810;8.342;2023-01-30T13:20:35;12.10;;;2.50;;
5805;SDS011;2929;50.810;8.342;2023-01-30T13:23:13;9.20;;;3.17;;
5805;SDS011;2929;50.810;8.342;2023-01-30T13:25:46;16.73;;;2.90;;
5805;SDS011;2929;50.810;8.342;2023-01-30T13:28:21;5.77;;;2.47;;
5805;SDS011;2929;50.810;8.342;2023-01-30T13:30:51;16.97;;;2.77;;
5805;SDS011;2929;50.810;8.342;2023-01-30T13:33:23;13.30;;;2.57;;
5805;SDS011;2929;50.810;8.342;2023-01-30T13:35:55;8.50;;;2.00;;
5805;SDS011;2929;50.810;8.342;2023-01-30T13:38:27;14.80;;;2.70;;
5805;SDS011;2929;50.810;8.342;2023-01-30T13:40:57;8.00;;;1.63;;
5805;SDS011;2929;50.810;8.342;2023-01-30T13:43:28;7.70;;;2.80;;
5805;SDS011;2929;50.810;8.342;2023-01-30T13:46:01;11.63;;;3.60;;
5805;SDS011;2929;50.810;8.342;2023-01-30T13:48:38;9.63;;;1.83;;
5805;SDS011;2929;50.810;8.342;2023-01-30T13:51:26;14.50;;;2.63;;
5805;SDS011;2929;50.810;8.342;2023-01-30T13:54:03;6.70;;;1.97;;
5805;SDS011;2929;50.810;8.342;2023-01-30T13:56:37;14.40;;;2.70;;
5805;SDS011;2929;50.810;8.342;2023-01-30T13:59:09;8.40;;;2.80;;
5805;SDS011;2929;50.810;8.342;2023-01-30T14:04:51;11.30;;;2.50;;
5805;SDS011;2929;50.810;8.342;2023-01-30T14:07:26;6.03;;;2.00;;
5805;SDS011;2929;50.810;8.342;2023-01-30T14:10:14;48.13;;;2.63;;
5805;SDS011;2929;50.810;8.342;2023-01-30T14:12:44;17.37;;;3.70;;
5805;SDS011;2929;50.810;8.342;2023-01-30T14:15:23;17.90;;;4.30;;
5805;SDS011;2929;50.810;8.342;2023-01-30T14:18:00;9.60;;;3.40;;
5805;SDS011;2929;50.810;8.342;2023-01-30T14:20:33;15.90;;;2.80;;
5805;SDS011;2929;50.810;8.342;2023-01-30T14:23:01;17.47;;;3.13;;
5805;SDS011;2929;50.810;8.342;2023-01-30T14:25:34;22.37;;;2.50;;
5805;SDS011;2929;50.810;8.342;2023-01-30T14:43:53;11.30;;;2.93;;
5805;SDS011;2929;50.810;8.342;2023-01-30T14:49:24;9.90;;;2.10;;
5805;SDS011;2929;50.810;8.342;2023-01-30T14:51:56;13.20;;;2.73;;
5805;SDS011;2929;50.810;8.342;2023-01-30T14:54:31;8.90;;;2.03;;
5805;SDS011;2929;50.810;8.342;2023-01-30T14:57:02;20.13;;;2.97;;
5805;SDS011;2929;50.810;8.342;2023-01-30T15:02:34;13.00;;;2.50;;
5805;SDS011;2929;50.810;8.342;2023-01-30T15:05:09;13.00;;;2.60;;
5805;SDS011;2929;50.810;8.342;2023-01-30T15:07:40;15.17;;;3.20;;
5805;SDS011;2929;50.810;8.342;2023-01-30T15:10:15;16.17;;;2.67;;
5805;SDS011;2929;50.810;8.342;2023-01-30T15:13:00;10.90;;;2.60;;
5805;SDS011;2929;50.810;8.342;2023-01-30T15:15:54;6.77;;;2.60;;
5805;SDS011;2929;50.810;8.342;2023-01-30T15:18:35;7.50;;;2.63;;
5805;SDS011;2929;50.810;8.342;2023-01-30T15:21:20;14.30;;;2.63;;
5805;SDS011;2929;50.810;8.342;2023-01-30T15:24:05;15.30;;;3.30;;
5805;SDS011;2929;50.810;8.342;2023-01-30T15:26:54;21.27;;;2.70;;
5805;SDS011;2929;50.810;8.342;2023-01-30T15:29:43;19.23;;;3.77;;
5805;SDS011;2929;50.810;8.342;2023-01-30T15:32:28;10.60;;;3.50;;
5805;SDS011;2929;50.810;8.342;2023-01-30T15:34:59;17.03;;;3.77;;
5805;SDS011;2929;50.810;8.342;2023-01-30T15:37:28;11.73;;;3.13;;
5805;SDS011;2929;50.810;8.342;2023-01-30T15:40:09;9.37;;;2.83;;
5805;SDS011;2929;50.810;8.342;2023-01-30T15:42:48;11.93;;;3.87;;
5805;SDS011;2929;50.810;8.342;2023-01-30T15:45:18;15.73;;;2.70;;
5805;SDS011;2929;50.810;8.342;2023-01-30T15:47:58;15.83;;;2.97;;
5805;SDS011;2929;50.810;8.342;2023-01-30T15:50:50;20.53;;;3.30;;
5805;SDS011;2929;50.810;8.342;2023-01-30T15:53:22;8.17;;;2.50;;
5805;SDS011;2929;50.810;8.342;2023-01-30T15:55:53;13.70;;;3.00;;
5805;SDS011;2929;50.810;8.342;2023-01-30T15:58:20;18.33;;;2.53;;
5805;SDS011;2929;50.810;8.342;2023-01-30T16:00:48;18.37;;;2.20;;
5805;SDS011;2929;50.810;8.342;2023-01-30T16:03:19;14.37;;;3.70;;